Time;durP1;ratioP1;P1;durP2;ratioP2;P2;SDS_P1;SDS_P2;PMS_P1;PMS_P2;Temp;Humidity;BMP_temperature;BMP_pressure;BME280_temperature;BME280_humidity;BME280_pressure;Samples;Min_cycle;Max_cycle;Signal;HPM_P1;HPM_P2
2022/01/29 00:01:13;;;;;;;81.95;43.63;;;0.90;99.90;;;;;;5113113;28;20026;-68
2022/01/29 00:03:39;;;;;;;74.40;44.90;;;0.90;99.90;;;;;;5113016;28;20030;-68
2022/01/29 00:06:05;;;;;;;81.35;44.67;;;0.80;99.90;;;;;;5095087;28;20129;-68
2022/01/29 00:08:32;;;;;;;71.38;41.88;;;0.80;99.90;;;;;;5113042;28;20023;-67
2022/01/29 00:11:09;;;;;;;75.80;44.58;;;0.80;99.90;;;;;;5112548;28;20035;-68
2022/01/29 00:13:35;;;;;;;71.63;41.72;;;0.80;99.90;;;;;;5112939;28;20024;-68
2022/01/29 00:16:02;;;;;;;69.47;42.30;;;0.60;99.90;;;;;;5091125;28;20051;-68
2022/01/29 00:18:28;;;;;;;76.72;44.92;;;0.60;99.90;;;;;;5090766;28;20556;-67
2022/01/29 00:20:54;;;;;;;73.10;44.22;;;0.50;99.90;;;;;;5088680;28;20417;-66
2022/01/29 00:23:20;;;;;;;72.53;41.63;;;0.50;99.90;;;;;;5091092;28;20024;-68
2022/01/29 00:25:46;;;;;;;74.72;40.42;;;0.40;99.90;;;;;;5091195;28;20024;-67
2022/01/29 00:28:13;;;;;;;76.95;42.13;;;0.50;99.90;;;;;;5091206;28;20036;-67
2022/01/29 00:30:42;;;;;;;71.68;42.47;;;0.40;99.90;;;;;;5092474;28;20066;-67
2022/01/29 00:33:09;;;;;;;74.53;43.30;;;0.30;99.90;;;;;;5087353;28;20098;-67
2022/01/29 00:35:36;;;;;;;72.47;40.25;;;0.30;99.90;;;;;;5091072;28;20571;-67
2022/01/29 00:38:04;;;;;;;69.80;38.70;;;0.20;99.90;;;;;;5084817;28;20025;-68
2022/01/29 00:40:36;;;;;;;63.28;37.63;;;0.20;99.90;;;;;;5070884;28;20031;-67
2022/01/29 00:43:04;;;;;;;74.88;38.42;;;0.30;99.90;;;;;;5070860;28;20060;-67
2022/01/29 00:45:30;;;;;;;68.70;41.08;;;0.30;99.90;;;;;;5084917;28;20468;-67
2022/01/29 00:47:56;;;;;;;75.97;42.15;;;0.40;99.90;;;;;;5091963;28;20071;-67
2022/01/29 00:50:23;;;;;;;72.32;42.67;;;0.30;99.90;;;;;;5092748;28;20103;-67
2022/01/29 00:52:49;;;;;;;79.18;42.53;;;0.30;99.90;;;;;;5087586;28;20426;-67
2022/01/29 00:55:15;;;;;;;74.57;42.05;;;0.30;99.90;;;;;;5076281;28;20036;-67
2022/01/29 00:57:43;;;;;;;80.22;44.42;;;0.40;99.90;;;;;;5090112;28;20081;-67
2022/01/29 01:00:11;;;;;;;80.82;48.88;;;0.30;99.90;;;;;;5086981;28;20028;-68
2022/01/29 01:02:38;;;;;;;83.78;50.60;;;0.30;99.90;;;;;;5092477;28;20028;-68
2022/01/29 01:05:05;;;;;;;84.95;49.85;;;0.20;99.90;;;;;;5091169;28;20078;-68
2022/01/29 01:07:32;;;;;;;92.10;51.65;;;0.20;99.90;;;;;;5089905;28;20024;-68
2022/01/29 01:09:58;;;;;;;95.95;53.25;;;0.30;99.90;;;;;;5095750;28;20020;-68
2022/01/29 01:12:24;;;;;;;94.88;55.58;;;0.20;99.90;;;;;;5095816;28;20020;-68
2022/01/29 01:14:50;;;;;;;101.40;58.95;;;0.20;99.90;;;;;;5093886;28;20077;-68
2022/01/29 01:17:18;;;;;;;110.47;64.80;;;0.20;99.90;;;;;;5095120;28;20201;-68
2022/01/29 01:19:45;;;;;;;102.82;58.58;;;0.20;99.90;;;;;;5095601;28;20027;-67
2022/01/29 01:22:11;;;;;;;104.65;61.05;;;0.20;99.90;;;;;;5095891;28;20493;-67
2022/01/29 01:24:37;;;;;;;106.20;60.60;;;0.10;99.90;;;;;;5095283;28;20108;-67
2022/01/29 01:27:04;;;;;;;103.57;58.75;;;0.20;99.90;;;;;;5095388;28;20379;-66
2022/01/29 01:29:30;;;;;;;107.93;64.05;;;0.20;99.90;;;;;;5095445;28;20020;-67
2022/01/29 01:31:56;;;;;;;118.55;68.35;;;0.20;99.90;;;;;;5091134;28;20073;-67
2022/01/29 01:34:24;;;;;;;117.10;68.30;;;0.20;99.90;;;;;;5082715;28;20379;-67
2022/01/29 01:36:58;;;;;;;128.07;71.35;;;0.30;99.90;;;;;;5084797;28;20032;-67
2022/01/29 01:39:29;;;;;;;136.55;74.20;;;0.20;99.90;;;;;;5088349;28;20384;-67
2022/01/29 01:42:07;;;;;;;119.93;72.32;;;0.20;99.90;;;;;;5093907;28;20035;-67
2022/01/29 01:44:37;;;;;;;112.88;67.85;;;0.30;99.90;;;;;;5093585;28;20115;-67
2022/01/29 01:47:04;;;;;;;121.78;70.05;;;0.30;99.90;;;;;;5082870;28;20117;-67
2022/01/29 01:49:30;;;;;;;125.40;68.80;;;0.20;99.90;;;;;;5082550;28;20111;-67
2022/01/29 01:51:58;;;;;;;130.30;68.68;;;0.20;99.90;;;;;;5083766;28;20065;-69
2022/01/29 01:54:24;;;;;;;133.70;73.55;;;0.20;99.90;;;;;;5065507;28;20042;-68
2022/01/29 01:56:50;;;;;;;130.20;74.30;;;0.20;99.90;;;;;;5081799;28;20032;-68
2022/01/29 01:59:16;;;;;;;127.28;75.40;;;0.20;99.90;;;;;;5084489;28;20024;-68
2022/01/29 02:01:43;;;;;;;143.05;77.93;;;0.30;99.90;;;;;;5094811;28;20056;-67
2022/01/29 02:04:09;;;;;;;143.60;77.55;;;0.30;99.90;;;;;;5094842;28;20036;-67
2022/01/29 02:06:35;;;;;;;127.75;72.10;;;0.30;99.90;;;;;;5094751;28;20032;-68
2022/01/29 02:09:02;;;;;;;135.25;74.40;;;0.40;99.90;;;;;;5091958;28;20036;-67
2022/01/29 02:11:29;;;;;;;139.48;74.43;;;0.40;99.90;;;;;;5089355;28;20067;-67
2022/01/29 02:14:00;;;;;;;124.20;72.25;;;0.50;99.90;;;;;;5085668;28;20021;-69
2022/01/29 02:16:27;;;;;;;121.40;69.00;;;0.50;99.90;;;;;;5084892;28;20040;-68
2022/01/29 02:18:54;;;;;;;114.18;65.72;;;0.60;99.90;;;;;;5086644;28;20019;-68
2022/01/29 02:21:21;;;;;;;114.65;64.25;;;0.60;99.90;;;;;;5109457;28;20120;-68
2022/01/29 02:23:49;;;;;;;116.82;65.82;;;0.70;99.90;;;;;;5096958;28;20028;-69
2022/01/29 02:26:15;;;;;;;113.28;64.10;;;0.70;99.90;;;;;;5094501;28;20364;-67
2022/01/29 02:28:41;;;;;;;112.63;62.28;;;0.70;99.90;;;;;;5098970;28;20103;-68
2022/01/29 02:31:07;;;;;;;107.60;59.00;;;0.90;99.90;;;;;;5102984;28;20115;-68
2022/01/29 02:33:35;;;;;;;98.30;58.28;;;1.00;99.90;;;;;;5108019;28;20521;-67
2022/01/29 02:36:02;;;;;;;98.30;55.95;;;1.00;99.90;;;;;;5107996;28;20060;-68
2022/01/29 02:38:28;;;;;;;86.35;50.75;;;1.10;99.90;;;;;;5081841;28;20027;-68
2022/01/29 02:41:01;;;;;;;95.78;51.97;;;1.10;99.90;;;;;;5082211;28;20485;-69
2022/01/29 02:43:33;;;;;;;88.15;49.65;;;1.20;99.90;;;;;;5086807;28;20019;-69
2022/01/29 02:48:47;;;;;;;80.43;46.88;;;1.30;99.90;;;;;;5096629;28;20065;-67
2022/01/29 02:51:14;;;;;;;85.72;49.80;;;1.30;99.90;;;;;;5093905;28;20054;-68
2022/01/29 02:53:40;;;;;;;94.45;51.30;;;1.30;99.90;;;;;;5075550;28;20039;-67
2022/01/29 02:56:07;;;;;;;81.72;47.38;;;1.20;99.90;;;;;;5094840;28;20077;-69
2022/01/29 02:58:34;;;;;;;89.50;48.53;;;1.20;99.90;;;;;;5094620;28;20372;-69
2022/01/29 03:01:00;;;;;;;81.20;46.20;;;1.20;99.90;;;;;;5113831;28;20028;-69
2022/01/29 03:03:26;;;;;;;94.40;53.47;;;1.40;99.90;;;;;;5093599;28;20055;-69
2022/01/29 03:05:52;;;;;;;95.68;51.78;;;1.60;99.90;;;;;;5107294;28;20078;-69
2022/01/29 03:08:18;;;;;;;96.50;52.67;;;1.50;99.90;;;;;;5079491;28;20020;-69
2022/01/29 03:10:47;;;;;;;82.70;49.05;;;1.60;99.90;;;;;;5100843;28;20073;-69
2022/01/29 03:13:13;;;;;;;94.82;51.67;;;1.60;99.90;;;;;;5104635;28;20020;-69
2022/01/29 03:15:40;;;;;;;94.32;53.33;;;1.70;99.90;;;;;;5084347;28;20048;-68
2022/01/29 03:18:06;;;;;;;87.32;51.65;;;1.80;99.90;;;;;;5085949;28;20119;-68
2022/01/29 03:20:32;;;;;;;90.40;50.30;;;1.70;99.90;;;;;;5108495;28;20055;-68
2022/01/29 03:22:59;;;;;;;91.35;52.35;;;1.80;99.90;;;;;;5108826;28;20027;-68
2022/01/29 03:25:25;;;;;;;94.05;53.22;;;1.80;99.90;;;;;;5113382;28;20036;-70
2022/01/29 03:27:51;;;;;;;92.28;55.20;;;1.80;99.90;;;;;;5095075;28;20116;-68
2022/01/29 03:30:18;;;;;;;97.88;56.13;;;1.80;99.90;;;;;;5094747;28;20428;-67
2022/01/29 03:32:44;;;;;;;100.75;58.35;;;1.80;99.90;;;;;;5090320;28;20467;-68
2022/01/29 03:35:12;;;;;;;109.90;59.22;;;1.70;99.90;;;;;;5106012;28;20092;-67
2022/01/29 03:37:38;;;;;;;105.97;62.42;;;1.60;99.90;;;;;;5086328;28;20032;-67
2022/01/29 03:40:07;;;;;;;103.10;61.28;;;1.60;99.90;;;;;;5107314;27;20035;-68
2022/01/29 03:42:39;;;;;;;104.28;59.80;;;1.70;99.90;;;;;;5107585;28;20035;-69
2022/01/29 03:45:09;;;;;;;120.63;69.00;;;1.80;99.90;;;;;;5110601;28;20547;-69
2022/01/29 03:47:35;;;;;;;144.43;82.10;;;2.10;99.90;;;;;;5102905;28;20030;-68
2022/01/29 03:50:02;;;;;;;132.93;74.20;;;1.90;99.90;;;;;;5086483;28;20165;-68
2022/01/29 03:52:28;;;;;;;134.02;75.28;;;1.80;99.90;;;;;;5099200;28;20036;-70
2022/01/29 03:54:54;;;;;;;139.90;79.82;;;1.90;99.90;;;;;;5101001;28;20055;-69
2022/01/29 03:57:20;;;;;;;143.75;77.90;;;1.70;99.90;;;;;;5079209;28;20024;-69
2022/01/29 03:59:46;;;;;;;142.55;77.85;;;1.70;99.90;;;;;;5074558;28;20031;-69
2022/01/29 04:02:12;;;;;;;139.00;80.13;;;1.70;99.90;;;;;;5101165;28;20023;-69
2022/01/29 04:04:39;;;;;;;139.45;75.00;;;1.70;99.90;;;;;;5087733;28;20032;-69
2022/01/29 04:07:10;;;;;;;144.57;77.28;;;1.80;99.90;;;;;;5095922;28;20023;-69
2022/01/29 04:09:37;;;;;;;137.30;75.68;;;1.90;99.90;;;;;;5092290;28;20360;-69
2022/01/29 04:12:03;;;;;;;122.65;70.30;;;2.10;99.90;;;;;;5093709;28;20058;-71
2022/01/29 04:14:38;;;;;;;123.35;72.38;;;2.20;99.90;;;;;;5112221;28;20058;-69
2022/01/29 04:17:05;;;;;;;124.25;69.82;;;2.30;99.90;;;;;;5109931;28;20374;-70
2022/01/29 04:19:31;;;;;;;114.93;66.72;;;2.50;99.90;;;;;;5102645;28;20032;-70
2022/01/29 04:21:57;;;;;;;118.65;68.97;;;2.50;99.90;;;;;;5107686;28;20040;-69
2022/01/29 04:24:24;;;;;;;123.45;71.90;;;2.60;99.90;;;;;;5100117;28;20036;-69
2022/01/29 04:26:50;;;;;;;125.05;70.05;;;2.70;99.90;;;;;;5096247;28;20066;-70
2022/01/29 04:29:16;;;;;;;116.53;63.97;;;2.80;99.90;;;;;;5112411;28;20439;-71
2022/01/29 04:31:44;;;;;;;113.50;66.57;;;2.80;99.90;;;;;;5116237;28;20032;-70
2022/01/29 04:34:11;;;;;;;110.50;61.25;;;2.90;99.90;;;;;;5108772;28;20165;-69
2022/01/29 04:36:37;;;;;;;109.28;61.72;;;2.90;99.90;;;;;;5106496;28;20024;-69
2022/01/29 04:39:04;;;;;;;110.18;61.63;;;2.90;99.90;;;;;;5097863;28;20482;-69
2022/01/29 04:41:30;;;;;;;106.55;58.78;;;2.90;99.90;;;;;;5109691;28;20612;-69
2022/01/29 04:43:56;;;;;;;97.97;59.08;;;2.70;99.90;;;;;;5074735;28;20081;-69
2022/01/29 04:46:22;;;;;;;101.03;57.47;;;2.60;99.90;;;;;;5116530;28;20028;-70
2022/01/29 04:48:48;;;;;;;100.57;56.92;;;2.70;99.90;;;;;;5113486;28;20038;-70
2022/01/29 04:51:15;;;;;;;98.03;56.92;;;2.80;99.90;;;;;;5093439;28;20030;-71
2022/01/29 04:53:41;;;;;;;100.80;57.95;;;2.90;99.90;;;;;;5088948;28;20114;-70
2022/01/29 04:56:07;;;;;;;104.28;56.45;;;3.00;99.90;;;;;;5112533;28;20088;-70
2022/01/29 04:58:35;;;;;;;103.07;55.90;;;2.90;99.90;;;;;;5111706;28;20031;-70
2022/01/29 05:01:01;;;;;;;92.78;53.53;;;2.80;99.90;;;;;;5115732;28;20116;-71
2022/01/29 05:03:27;;;;;;;102.72;58.50;;;2.80;99.90;;;;;;5113832;28;20031;-70
2022/01/29 05:05:53;;;;;;;111.07;59.42;;;2.90;99.90;;;;;;5109294;28;20077;-70
2022/01/29 05:08:19;;;;;;;101.80;59.30;;;3.00;99.90;;;;;;5107781;28;20038;-70
2022/01/29 05:10:46;;;;;;;113.38;65.38;;;3.10;99.90;;;;;;5101878;28;20024;-69
2022/01/29 05:13:16;;;;;;;112.85;62.80;;;3.00;99.90;;;;;;5115694;28;20027;-71
2022/01/29 05:16:09;;;;;;;123.20;63.10;;;3.20;99.90;;;;;;5111753;28;20100;-70
2022/01/29 05:29:17;;;;;;;126.88;64.85;;;3.10;99.90;;;;;;5115185;28;20038;-69
2022/01/29 05:31:44;;;;;;;132.50;67.13;;;3.10;99.90;;;;;;5110736;28;20039;-68
2022/01/29 05:34:11;;;;;;;160.60;90.50;;;3.10;99.90;;;;;;5093083;28;20056;-69
2022/01/29 05:36:37;;;;;;;160.52;92.20;;;3.30;99.90;;;;;;5093197;28;20043;-69
2022/01/29 05:39:04;;;;;;;140.07;79.28;;;3.40;99.90;;;;;;5106565;28;20028;-69
2022/01/29 05:41:32;;;;;;;143.45;78.68;;;3.40;99.90;;;;;;5104312;28;20057;-69
2022/01/29 05:43:58;;;;;;;131.25;73.38;;;3.60;99.90;;;;;;5098525;28;20028;-69
2022/01/29 05:46:24;;;;;;;127.75;67.18;;;3.60;99.90;;;;;;5103090;28;20028;-68
2022/01/29 05:48:50;;;;;;;125.40;63.85;;;3.70;99.90;;;;;;5097675;28;20104;-69
2022/01/29 05:51:16;;;;;;;121.00;61.58;;;3.90;99.90;;;;;;5100666;28;20019;-69
2022/01/29 05:53:42;;;;;;;108.55;57.28;;;4.10;99.90;;;;;;5095010;28;20475;-69
2022/01/29 05:56:08;;;;;;;104.30;57.70;;;4.20;99.90;;;;;;5114614;28;20033;-70
2022/01/29 05:58:36;;;;;;;120.60;60.55;;;4.20;99.90;;;;;;5111791;28;20059;-70
2022/01/29 06:01:03;;;;;;;124.22;63.88;;;4.40;99.90;;;;;;5096454;28;20020;-70
2022/01/29 06:03:29;;;;;;;122.72;66.55;;;4.50;99.90;;;;;;5112249;28;20032;-69
2022/01/29 06:05:55;;;;;;;124.63;67.53;;;4.60;99.90;;;;;;5091655;28;20368;-70
2022/01/29 06:08:21;;;;;;;130.73;66.90;;;4.60;99.90;;;;;;5113632;28;20023;-69
2022/01/29 06:10:48;;;;;;;117.18;64.53;;;4.70;99.90;;;;;;5110158;28;20043;-69
2022/01/29 06:13:16;;;;;;;117.03;62.33;;;4.60;99.90;;;;;;5111888;28;20024;-69
2022/01/29 06:15:44;;;;;;;95.45;54.42;;;4.90;99.90;;;;;;5093403;28;20100;-68
2022/01/29 06:18:13;;;;;;;96.43;56.50;;;5.20;99.90;;;;;;5109868;28;20035;-68
2022/01/29 06:20:40;;;;;;;90.07;53.60;;;5.10;99.90;;;;;;5095729;28;20039;-68
2022/01/29 06:23:07;;;;;;;95.20;55.90;;;5.10;99.90;;;;;;5111760;28;20038;-69
2022/01/29 06:25:33;;;;;;;93.28;55.08;;;5.30;99.90;;;;;;5082548;28;20467;-68
2022/01/29 06:27:59;;;;;;;95.93;52.65;;;5.40;99.90;;;;;;5088917;28;20027;-69
2022/01/29 06:30:25;;;;;;;108.10;57.13;;;5.40;99.90;;;;;;5108275;28;20027;-70
2022/01/29 06:32:51;;;;;;;97.28;57.22;;;5.40;99.90;;;;;;5095351;28;20026;-69
2022/01/29 06:35:17;;;;;;;101.63;59.33;;;5.20;99.90;;;;;;5110069;28;20103;-70
2022/01/29 06:37:44;;;;;;;90.47;52.40;;;5.30;99.90;;;;;;5091448;28;20031;-69
2022/01/29 06:40:10;;;;;;;89.68;53.20;;;5.40;99.90;;;;;;5108895;28;20028;-69
2022/01/29 06:42:37;;;;;;;88.50;53.30;;;5.40;99.90;;;;;;5110334;28;20027;-70
2022/01/29 06:45:04;;;;;;;99.38;59.50;;;5.30;99.90;;;;;;5092256;28;20027;-69
2022/01/29 06:47:31;;;;;;;111.82;65.50;;;5.50;99.90;;;;;;5112063;28;20053;-69
2022/01/29 06:49:57;;;;;;;108.55;66.07;;;5.60;99.90;;;;;;5091123;28;20331;-69
2022/01/29 06:52:24;;;;;;;116.38;67.05;;;5.30;99.90;;;;;;5092449;28;20034;-69
2022/01/29 06:54:50;;;;;;;108.38;64.70;;;5.30;99.90;;;;;;5112005;28;20172;-68
2022/01/29 06:57:16;;;;;;;113.15;67.32;;;5.50;99.90;;;;;;5113068;28;20031;-68
2022/01/29 06:59:42;;;;;;;113.18;68.85;;;5.50;99.90;;;;;;5113338;28;20032;-69
2022/01/29 07:02:08;;;;;;;113.07;69.47;;;5.50;99.90;;;;;;5095037;28;20076;-68
2022/01/29 07:04:35;;;;;;;114.95;70.60;;;5.40;99.90;;;;;;5110789;28;20036;-69
2022/01/29 07:07:01;;;;;;;124.90;71.38;;;5.40;99.90;;;;;;5108123;28;20031;-68
2022/01/29 07:09:27;;;;;;;123.10;72.65;;;5.50;99.90;;;;;;5112680;28;20027;-67
2022/01/29 07:11:57;;;;;;;117.43;74.00;;;5.40;99.90;;;;;;5113803;28;20047;-69
2022/01/29 07:14:23;;;;;;;124.13;74.72;;;5.50;99.90;;;;;;5094577;28;20117;-67
2022/01/29 07:16:49;;;;;;;114.47;72.35;;;5.60;99.90;;;;;;5112307;28;20479;-70
2022/01/29 07:19:15;;;;;;;115.55;70.85;;;5.90;99.90;;;;;;5094788;28;20036;-69
2022/01/29 07:21:41;;;;;;;114.35;70.10;;;5.90;99.90;;;;;;5111886;28;20068;-68
2022/01/29 07:24:07;;;;;;;102.93;65.18;;;5.90;99.90;;;;;;5109633;28;20123;-69
2022/01/29 07:26:34;;;;;;;97.28;61.28;;;6.00;99.90;;;;;;5113197;28;20039;-68
2022/01/29 07:29:00;;;;;;;98.68;60.75;;;5.80;99.90;;;;;;5102289;28;20039;-69
2022/01/29 07:31:26;;;;;;;86.28;55.30;;;6.00;99.90;;;;;;5106368;28;20035;-67
2022/01/29 07:33:52;;;;;;;83.50;50.88;;;5.80;99.90;;;;;;5112815;28;20031;-66
2022/01/29 07:36:18;;;;;;;67.30;43.60;;;6.20;99.90;;;;;;5095226;28;20020;-67
2022/01/29 07:38:44;;;;;;;58.38;36.53;;;6.30;99.90;;;;;;5091671;28;20099;-66
2022/01/29 07:41:10;;;;;;;54.25;31.13;;;6.40;99.90;;;;;;5109821;28;20027;-67
2022/01/29 07:43:36;;;;;;;49.88;31.70;;;6.30;99.90;;;;;;5091653;28;20019;-67
2022/01/29 07:46:16;;;;;;;50.45;30.33;;;6.50;99.90;;;;;;5087523;28;20131;-67
2022/01/29 07:48:42;;;;;;;47.70;29.08;;;6.60;99.90;;;;;;5111829;28;20115;-67
2022/01/29 07:51:08;;;;;;;41.63;26.88;;;6.60;99.90;;;;;;5109858;28;20514;-67
2022/01/29 07:53:34;;;;;;;35.85;22.30;;;6.50;99.90;;;;;;5090335;28;20039;-67
2022/01/29 07:56:00;;;;;;;43.20;24.05;;;6.20;99.90;;;;;;5112311;28;20016;-66
2022/01/29 07:58:27;;;;;;;39.83;24.63;;;6.10;99.90;;;;;;5112929;28;20019;-67
2022/01/29 08:00:53;;;;;;;40.15;22.98;;;6.10;99.90;;;;;;5094126;28;20110;-68
2022/01/29 08:03:19;;;;;;;40.95;22.35;;;6.10;99.90;;;;;;5094586;28;20031;-67
2022/01/29 08:05:45;;;;;;;34.72;22.80;;;6.30;99.90;;;;;;5112872;28;20114;-67
2022/01/29 08:08:11;;;;;;;38.90;23.23;;;6.60;99.90;;;;;;5094257;28;20466;-67
2022/01/29 08:10:37;;;;;;;33.58;22.90;;;6.80;99.90;;;;;;5112881;28;20102;-67
2022/01/29 08:13:03;;;;;;;35.47;21.00;;;7.10;99.90;;;;;;5109497;28;20031;-67
2022/01/29 08:15:30;;;;;;;36.60;20.92;;;7.40;99.90;;;;;;5111707;28;20070;-67
2022/01/29 08:17:56;;;;;;;39.17;25.70;;;7.50;99.90;;;;;;5112473;28;20466;-67
2022/01/29 08:20:22;;;;;;;37.58;21.88;;;7.40;99.90;;;;;;5111562;28;20055;-67
2022/01/29 08:22:48;;;;;;;35.72;22.02;;;7.40;99.90;;;;;;5111130;28;20020;-67
2022/01/29 08:25:15;;;;;;;38.20;23.45;;;7.30;99.90;;;;;;5112880;28;20356;-66
2022/01/29 08:27:41;;;;;;;33.60;19.05;;;7.20;99.90;;;;;;5093808;28;20427;-68
2022/01/29 08:30:07;;;;;;;35.13;19.42;;;7.10;99.90;;;;;;5093325;28;20051;-67
2022/01/29 08:32:40;;;;;;;31.73;20.13;;;6.90;99.90;;;;;;5101985;28;20028;-67
2022/01/29 08:35:11;;;;;;;32.45;20.10;;;6.50;99.90;;;;;;5100078;28;20479;-70
2022/01/29 08:37:37;;;;;;;30.52;18.90;;;6.10;99.90;;;;;;5103751;28;20506;-68
2022/01/29 08:40:04;;;;;;;28.23;18.45;;;6.30;99.90;;;;;;5101209;28;20162;-67
2022/01/29 08:42:30;;;;;;;31.42;20.05;;;6.40;99.90;;;;;;5108052;28;20020;-68
2022/01/29 08:44:57;;;;;;;32.13;21.02;;;6.50;99.90;;;;;;5088715;28;20077;-67
2022/01/29 08:47:23;;;;;;;34.50;22.08;;;6.60;99.90;;;;;;5109217;28;20024;-67
2022/01/29 08:49:49;;;;;;;42.33;23.80;;;6.80;99.90;;;;;;5107901;28;20213;-66
2022/01/29 08:52:15;;;;;;;39.05;23.35;;;6.70;99.90;;;;;;5094004;28;20034;-68
2022/01/29 08:54:41;;;;;;;41.08;23.00;;;6.80;99.90;;;;;;5101716;28;20111;-67
2022/01/29 08:57:07;;;;;;;36.20;23.25;;;6.80;99.90;;;;;;5111157;28;20023;-69
2022/01/29 08:59:33;;;;;;;36.45;21.40;;;6.70;99.90;;;;;;5110961;28;20042;-68
2022/01/29 09:02:00;;;;;;;28.55;19.17;;;6.70;99.90;;;;;;5112144;28;20108;-68
2022/01/29 09:04:26;;;;;;;31.30;20.85;;;6.80;99.90;;;;;;5094022;28;20131;-67
2022/01/29 09:06:52;;;;;;;40.83;23.50;;;6.90;99.90;;;;;;5112070;28;20052;-67
2022/01/29 09:09:23;;;;;;;35.58;23.40;;;6.90;99.90;;;;;;5112061;28;20467;-67
2022/01/29 09:11:51;;;;;;;41.95;26.75;;;6.80;99.90;;;;;;5113391;28;20057;-68
2022/01/29 09:14:17;;;;;;;46.15;28.25;;;6.80;99.90;;;;;;5114027;28;20040;-67
2022/01/29 09:16:43;;;;;;;45.38;27.58;;;6.80;99.90;;;;;;5096028;28;20032;-67
2022/01/29 09:19:13;;;;;;;47.72;28.08;;;6.80;99.90;;;;;;5097645;28;20023;-68
2022/01/29 09:21:39;;;;;;;48.45;29.80;;;6.80;99.90;;;;;;5096614;28;20040;-68
2022/01/29 09:24:05;;;;;;;41.25;28.23;;;6.80;99.90;;;;;;5097457;28;20118;-67
2022/01/29 09:26:32;;;;;;;48.28;27.02;;;6.70;99.90;;;;;;5115919;28;20016;-68
2022/01/29 09:28:58;;;;;;;46.70;26.73;;;6.70;99.90;;;;;;5095396;28;20027;-66
2022/01/29 09:31:24;;;;;;;45.40;26.38;;;6.70;99.90;;;;;;5091583;28;20057;-66
2022/01/29 09:33:50;;;;;;;46.55;27.63;;;6.70;99.90;;;;;;5111122;28;20030;-67
2022/01/29 09:36:16;;;;;;;45.97;27.63;;;6.60;99.90;;;;;;5089890;28;20023;-67
2022/01/29 09:38:42;;;;;;;41.95;26.15;;;6.70;99.90;;;;;;5109926;28;20015;-67
2022/01/29 09:41:10;;;;;;;40.33;26.35;;;6.70;99.90;;;;;;5106180;28;20126;-67
2022/01/29 09:43:36;;;;;;;47.45;27.17;;;6.50;99.90;;;;;;5087702;28;20092;-66
2022/01/29 09:46:02;;;;;;;42.95;27.65;;;6.40;99.90;;;;;;5109235;28;20015;-68
2022/01/29 09:48:29;;;;;;;43.75;24.50;;;6.30;99.90;;;;;;5104636;28;20043;-67
2022/01/29 09:50:57;;;;;;;41.10;26.05;;;6.30;99.90;;;;;;5093112;28;20019;-66
2022/01/29 09:57:16;;;;;;;43.20;28.30;;;6.30;99.90;;;;;;5098445;28;20433;-67
2022/01/29 09:59:42;;;;;;;52.47;31.50;;;6.10;99.90;;;;;;5111817;28;20019;-67
2022/01/29 10:02:15;;;;;;;58.70;33.85;;;6.00;99.90;;;;;;5110857;28;20030;-68
2022/01/29 10:04:55;;;;;;;52.67;32.22;;;5.80;99.90;;;;;;5111095;28;20026;-68
2022/01/29 10:07:29;;;;;;;53.00;33.08;;;5.90;99.90;;;;;;5086135;28;20020;-70
2022/01/29 10:09:58;;;;;;;59.28;35.67;;;5.80;99.90;;;;;;5105730;28;20031;-69
2022/01/29 10:12:30;;;;;;;67.60;40.33;;;5.70;99.90;;;;;;5094491;28;20063;-69
2022/01/29 10:15:03;;;;;;;67.07;42.00;;;5.70;99.90;;;;;;5108622;28;20492;-69
2022/01/29 10:17:49;;;;;;;68.47;42.70;;;5.90;99.90;;;;;;5087000;28;20036;-70
2022/01/29 10:20:22;;;;;;;70.85;42.90;;;5.80;99.90;;;;;;5108354;28;20015;-69
2022/01/29 10:22:54;;;;;;;64.03;43.38;;;5.80;99.90;;;;;;5105302;28;20016;-70
2022/01/29 10:25:26;;;;;;;66.88;40.60;;;5.80;99.90;;;;;;5104578;28;20031;-70
2022/01/29 10:28:12;;;;;;;73.47;44.05;;;5.80;99.90;;;;;;5079481;28;20070;-70
2022/01/29 10:31:05;;;;;;;64.85;40.25;;;5.80;99.90;;;;;;5108391;28;20019;-70
2022/01/29 10:33:39;;;;;;;65.15;41.75;;;5.70;99.90;;;;;;5102728;28;20063;-70
2022/01/29 10:36:14;;;;;;;70.88;41.88;;;5.50;99.90;;;;;;5108233;28;20020;-70
2022/01/29 10:38:40;;;;;;;68.68;42.95;;;5.50;99.90;;;;;;5096454;28;20058;-70
2022/01/29 10:41:29;;;;;;;71.47;42.53;;;5.40;99.90;;;;;;5096171;28;20019;-69
2022/01/29 10:44:21;;;;;;;67.00;42.72;;;5.30;99.90;;;;;;5114398;28;20475;-69
2022/01/29 10:46:53;;;;;;;74.88;42.80;;;5.30;99.90;;;;;;5095610;28;20023;-69
2022/01/29 10:49:27;;;;;;;78.97;43.28;;;5.20;99.90;;;;;;5095297;28;20488;-69
2022/01/29 10:51:58;;;;;;;76.13;45.95;;;5.00;99.90;;;;;;5106299;28;20019;-69
2022/01/29 10:54:25;;;;;;;75.32;45.28;;;5.10;99.90;;;;;;5095790;28;20028;-69
2022/01/29 10:56:55;;;;;;;74.45;44.60;;;5.10;99.90;;;;;;5104237;28;20032;-70
2022/01/29 10:59:22;;;;;;;70.32;45.63;;;5.10;99.90;;;;;;5103935;28;20021;-69
2022/01/29 11:02:00;;;;;;;79.32;45.33;;;5.00;99.90;;;;;;5103976;28;20081;-70
2022/01/29 11:04:29;;;;;;;77.55;50.15;;;4.90;99.90;;;;;;5104263;28;20028;-69
2022/01/29 11:07:00;;;;;;;84.57;53.67;;;4.70;99.90;;;;;;5107813;28;20044;-69
2022/01/29 11:09:28;;;;;;;82.15;53.58;;;4.50;99.90;;;;;;5111905;28;20048;-69
2022/01/29 11:11:57;;;;;;;86.85;51.13;;;4.50;99.90;;;;;;5113999;28;20023;-69
2022/01/29 11:14:24;;;;;;;87.80;52.85;;;4.50;99.90;;;;;;5094405;28;20100;-70
2022/01/29 11:16:52;;;;;;;85.22;52.03;;;4.40;99.90;;;;;;5104128;28;20027;-70
2022/01/29 11:19:19;;;;;;;89.18;53.60;;;4.40;99.90;;;;;;5092541;28;20034;-69
2022/01/29 11:21:50;;;;;;;82.20;52.58;;;4.40;99.90;;;;;;5105354;28;20020;-72
2022/01/29 11:24:23;;;;;;;96.97;55.45;;;4.20;99.90;;;;;;5107843;28;20596;-70
2022/01/29 11:26:50;;;;;;;93.72;57.90;;;4.00;99.90;;;;;;5087556;28;20047;-70
2022/01/29 11:29:37;;;;;;;98.47;62.03;;;4.00;99.90;;;;;;5082793;28;20091;-72
2022/01/29 11:32:22;;;;;;;114.00;68.57;;;4.00;99.90;;;;;;5093336;28;20398;-70
2022/01/29 11:35:44;;;;;;;122.35;74.55;;;4.10;99.90;;;;;;5110163;28;20084;-69
2022/01/29 11:38:11;;;;;;;123.53;75.45;;;3.90;99.90;;;;;;5113408;28;20028;-70
2022/01/29 11:40:54;;;;;;;121.80;76.18;;;3.80;99.90;;;;;;5112523;28;20501;-69
2022/01/29 11:43:20;;;;;;;112.05;70.90;;;3.70;99.90;;;;;;5108073;28;20080;-68
2022/01/29 11:46:04;;;;;;;119.75;67.78;;;3.60;99.90;;;;;;5088081;28;20023;-68
2022/01/29 11:48:38;;;;;;;89.03;55.92;;;3.40;99.90;;;;;;5088941;28;20043;-69
2022/01/29 11:51:10;;;;;;;80.10;45.88;;;3.10;99.90;;;;;;5089350;28;20016;-69
2022/01/29 11:53:56;;;;;;;74.75;42.72;;;2.90;99.90;;;;;;5106524;28;20059;-68
2022/01/29 11:56:28;;;;;;;76.70;44.05;;;2.80;99.90;;;;;;5090305;28;20478;-70
2022/01/29 11:59:20;;;;;;;72.43;44.72;;;2.70;99.90;;;;;;5091033;28;20020;-68
2022/01/29 12:01:47;;;;;;;67.22;40.78;;;2.90;99.90;;;;;;5089131;28;20525;-69
2022/01/29 12:04:16;;;;;;;75.78;41.40;;;2.90;99.90;;;;;;5111833;28;20027;-68
2022/01/29 12:10:14;;;;;;;63.80;37.95;;;2.70;99.90;;;;;;5093621;28;20418;-69
2022/01/29 12:12:45;;;;;;;67.85;40.97;;;2.60;99.90;;;;;;5082974;28;20483;-69
2022/01/29 12:15:48;;;;;;;66.03;41.55;;;2.60;99.90;;;;;;5108250;28;20043;-69
2022/01/29 12:18:29;;;;;;;66.63;42.30;;;2.50;99.90;;;;;;5112184;28;20094;-68
2022/01/29 12:20:55;;;;;;;74.82;45.88;;;2.40;99.90;;;;;;5110824;28;20425;-70
2022/01/29 12:23:21;;;;;;;72.53;46.88;;;2.30;99.90;;;;;;5112078;28;20030;-70
2022/01/29 12:26:18;;;;;;;79.38;47.17;;;2.30;99.90;;;;;;5113080;28;20387;-69
2022/01/29 12:28:52;;;;;;;78.13;47.95;;;2.30;99.90;;;;;;5108031;28;20020;-69
2022/01/29 12:31:18;;;;;;;80.50;47.70;;;2.40;99.90;;;;;;5109835;28;20538;-68
2022/01/29 12:33:45;;;;;;;84.10;48.55;;;2.30;99.90;;;;;;5111727;28;20471;-69
2022/01/29 12:39:33;;;;;;;86.38;51.42;;;2.20;99.90;;;;;;5092314;28;20495;-70
2022/01/29 12:44:58;;;;;;;82.40;53.08;;;2.20;99.90;;;;;;5109791;28;20019;-71
2022/01/29 12:47:32;;;;;;;90.03;53.50;;;2.20;99.90;;;;;;5095351;28;20475;-69
2022/01/29 12:49:59;;;;;;;87.05;52.42;;;2.20;99.90;;;;;;5116107;28;20354;-69
2022/01/29 12:52:26;;;;;;;88.80;51.88;;;2.20;99.90;;;;;;5116191;28;20356;-68
2022/01/29 12:54:53;;;;;;;86.93;53.05;;;2.20;99.90;;;;;;5116044;28;20380;-69
2022/01/29 12:57:21;;;;;;;83.13;50.17;;;2.10;99.90;;;;;;5115734;28;20027;-68
2022/01/29 12:59:48;;;;;;;83.35;50.60;;;2.10;99.90;;;;;;5116038;28;20024;-69
2022/01/29 13:02:15;;;;;;;82.80;50.20;;;2.00;99.90;;;;;;5097477;28;20058;-70
2022/01/29 13:04:46;;;;;;;77.18;49.20;;;2.10;99.90;;;;;;5115767;28;20024;-68
2022/01/29 13:07:14;;;;;;;82.78;49.95;;;2.10;99.90;;;;;;5115713;28;20181;-67